Time;durP1;ratioP1;P1;durP2;ratioP2;P2;SDS_P1;SDS_P2;PMS_P1;PMS_P2;Temp;Humidity;BMP_temperature;BMP_pressure;BME280_temperature;BME280_humidity;BME280_pressure;Samples;Min_cycle;Max_cycle;Signal;HPM_P1;HPM_P2
2023/03/25 00:01:12;;;;;;;5.43;2.80;;;11.10;99.90;;;;;;5074321;28;20446;-46
2023/03/25 00:03:41;;;;;;;6.23;3.50;;;11.10;99.90;;;;;;5074268;28;20877;-49
2023/03/25 00:06:11;;;;;;;4.60;4.00;;;11.10;99.90;;;;;;5074338;28;20464;-47
2023/03/25 00:08:37;;;;;;;5.33;2.90;;;11.00;99.90;;;;;;5074150;28;20436;-47
2023/03/25 00:11:07;;;;;;;4.70;3.40;;;11.00;99.90;;;;;;5056597;28;20454;-48
2023/03/25 00:13:34;;;;;;;4.67;2.50;;;11.00;99.90;;;;;;5074509;28;20541;-48
2023/03/25 00:16:01;;;;;;;4.50;2.57;;;11.10;99.90;;;;;;5074703;28;20435;-47
2023/03/25 00:18:32;;;;;;;2.70;2.40;;;10.90;99.90;;;;;;5074296;28;20439;-48
2023/03/25 00:21:00;;;;;;;3.93;2.60;;;11.30;99.90;;;;;;5074628;28;20414;-47
2023/03/25 00:23:29;;;;;;;3.37;2.20;;;11.20;99.90;;;;;;5074719;28;20463;-47
2023/03/25 00:25:59;;;;;;;4.77;2.20;;;10.90;99.90;;;;;;5074391;28;20976;-48
2023/03/25 00:28:27;;;;;;;3.27;2.10;;;11.20;99.90;;;;;;5074040;28;20449;-49
2023/03/25 00:30:53;;;;;;;3.63;1.97;;;10.70;99.90;;;;;;5074098;28;20442;-50
2023/03/25 00:33:21;;;;;;;3.90;2.40;;;10.70;99.90;;;;;;5073846;28;20487;-48
2023/03/25 00:35:53;;;;;;;6.67;2.60;;;10.50;99.90;;;;;;5073839;28;20423;-48
2023/03/25 00:38:23;;;;;;;7.67;2.73;;;11.10;99.90;;;;;;5073814;28;20462;-48
2023/03/25 00:40:51;;;;;;;4.20;2.20;;;11.00;99.90;;;;;;5073782;28;20458;-51
2023/03/25 00:43:18;;;;;;;9.90;3.00;;;10.50;99.90;;;;;;5074079;28;20435;-48
2023/03/25 00:45:45;;;;;;;7.07;2.40;;;10.10;99.90;;;;;;5073606;28;20426;-48
2023/03/25 00:48:12;;;;;;;2.90;2.07;;;10.90;99.90;;;;;;5055337;28;20914;-49
2023/03/25 00:50:38;;;;;;;3.10;2.10;;;10.90;99.90;;;;;;5073598;28;20430;-47
2023/03/25 00:53:07;;;;;;;4.80;1.97;;;10.20;99.90;;;;;;5073898;28;20474;-47
2023/03/25 00:55:33;;;;;;;3.80;2.50;;;10.60;99.90;;;;;;5073598;28;20443;-48
2023/03/25 00:58:02;;;;;;;3.50;2.33;;;10.40;99.90;;;;;;5073445;28;20803;-49
2023/03/25 01:00:29;;;;;;;7.93;4.53;;;10.70;99.90;;;;;;5073709;28;20442;-47
2023/03/25 01:02:55;;;;;;;6.03;2.30;;;10.50;99.90;;;;;;5055231;28;20450;-48
2023/03/25 01:05:22;;;;;;;3.10;2.13;;;10.90;99.90;;;;;;5073228;28;20460;-49
2023/03/25 01:07:50;;;;;;;4.80;2.40;;;10.30;99.90;;;;;;5055357;28;20449;-47
2023/03/25 01:10:17;;;;;;;7.20;2.30;;;10.40;99.90;;;;;;5073048;28;20456;-50
2023/03/25 01:12:44;;;;;;;4.90;2.73;;;10.70;99.90;;;;;;5055421;28;20976;-47
2023/03/25 01:15:12;;;;;;;3.67;2.30;;;10.40;99.90;;;;;;5055698;28;20978;-48
2023/03/25 01:17:40;;;;;;;4.57;2.07;;;10.80;99.90;;;;;;5054681;28;20461;-47
2023/03/25 01:20:08;;;;;;;4.70;2.60;;;10.30;99.90;;;;;;5072934;28;20437;-49
2023/03/25 01:22:35;;;;;;;4.13;2.20;;;10.30;99.90;;;;;;5072994;28;20438;-48
2023/03/25 01:25:02;;;;;;;5.97;2.10;;;10.20;99.90;;;;;;5073330;28;20450;-47
2023/03/25 01:27:30;;;;;;;3.37;2.00;;;10.80;99.90;;;;;;5055806;28;20447;-48
2023/03/25 01:29:56;;;;;;;4.70;2.03;;;10.20;99.90;;;;;;5073088;28;20484;-46
2023/03/25 01:32:24;;;;;;;4.43;2.43;;;10.30;99.90;;;;;;5073315;28;20477;-50
2023/03/25 01:34:51;;;;;;;3.47;1.97;;;10.20;99.90;;;;;;5073165;28;20492;-47
2023/03/25 01:37:18;;;;;;;3.90;1.90;;;9.70;99.90;;;;;;5055509;28;20529;-47
2023/03/25 01:39:44;;;;;;;3.80;2.00;;;10.70;99.90;;;;;;5073318;28;20425;-47
2023/03/25 01:42:12;;;;;;;3.23;1.90;;;10.30;99.90;;;;;;5073139;28;20445;-49
2023/03/25 01:45:19;;;;;;;4.40;2.97;;;10.50;99.90;;;;;;5054854;28;20436;-46
2023/03/25 01:47:49;;;;;;;10.77;2.17;;;10.30;99.90;;;;;;5072821;28;20476;-47
2023/03/25 01:50:17;;;;;;;4.70;2.30;;;10.20;99.90;;;;;;5054684;28;20486;-48
2023/03/25 01:52:47;;;;;;;4.57;2.37;;;10.20;99.90;;;;;;5072691;28;20470;-50
2023/03/25 01:55:16;;;;;;;4.20;2.63;;;9.70;99.90;;;;;;5054823;28;20474;-48
2023/03/25 01:57:45;;;;;;;4.43;2.20;;;10.30;99.90;;;;;;5054134;28;20443;-48
2023/03/25 02:00:14;;;;;;;3.50;1.93;;;10.10;99.90;;;;;;5054194;28;20482;-50
2023/03/25 02:02:44;;;;;;;5.60;2.30;;;10.30;99.90;;;;;;5072243;28;20442;-48
2023/03/25 02:05:18;;;;;;;3.83;2.50;;;10.30;99.90;;;;;;5054162;28;20568;-47
2023/03/25 02:07:47;;;;;;;5.73;2.27;;;10.20;99.90;;;;;;5072328;28;20426;-47
2023/03/25 02:10:15;;;;;;;2.80;1.70;;;10.30;99.90;;;;;;5071924;28;20423;-47
2023/03/25 02:12:44;;;;;;;3.47;2.30;;;9.90;99.90;;;;;;5072098;28;20479;-47
2023/03/25 02:15:13;;;;;;;3.80;2.10;;;10.30;99.90;;;;;;5054388;28;20504;-48
2023/03/25 02:17:59;;;;;;;6.50;1.40;;;10.60;99.90;;;;;;5072015;28;20497;-48
2023/03/25 02:21:03;;;;;;;5.33;1.83;;;10.30;99.90;;;;;;5053830;28;20655;-51
2023/03/25 02:24:18;;;;;;;3.03;1.80;;;10.40;99.90;;;;;;5072063;28;20451;-48
2023/03/25 02:27:27;;;;;;;3.13;1.90;;;10.70;99.90;;;;;;5071955;28;20441;-48
2023/03/25 02:30:36;;;;;;;4.60;1.80;;;10.40;99.90;;;;;;5071604;28;20429;-47
2023/03/25 02:33:36;;;;;;;3.73;1.90;;;10.40;99.90;;;;;;5053748;28;20471;-47
2023/03/25 02:36:40;;;;;;;2.70;1.83;;;10.40;99.90;;;;;;5021422;28;20935;-48
2023/03/25 02:39:13;;;;;;;3.43;1.80;;;10.50;99.90;;;;;;5053730;28;20465;-48
2023/03/25 02:41:45;;;;;;;5.30;1.77;;;10.50;99.90;;;;;;5053848;28;20420;-47
2023/03/25 02:44:16;;;;;;;3.17;1.63;;;10.40;99.90;;;;;;5053884;28;20473;-50
2023/03/25 02:46:54;;;;;;;5.50;1.83;;;11.00;99.90;;;;;;5054053;28;20455;-48
2023/03/25 02:49:25;;;;;;;2.97;1.90;;;10.70;99.90;;;;;;5053740;28;20454;-50
2023/03/25 02:51:56;;;;;;;3.20;1.87;;;10.90;99.90;;;;;;5071779;28;20940;-48
2023/03/25 02:54:27;;;;;;;3.40;1.80;;;10.50;99.90;;;;;;5053785;28;20493;-48
2023/03/25 02:56:56;;;;;;;3.57;2.27;;;10.50;99.90;;;;;;5053833;28;20533;-48
2023/03/25 02:59:31;;;;;;;3.33;1.77;;;10.50;99.90;;;;;;5053890;28;20462;-50
2023/03/25 03:02:00;;;;;;;3.70;1.70;;;10.40;99.90;;;;;;5054052;28;20429;-47
2023/03/25 03:04:27;;;;;;;3.63;1.80;;;10.30;99.90;;;;;;5072166;28;20462;-48
2023/03/25 03:06:56;;;;;;;3.80;1.63;;;10.50;99.90;;;;;;5054340;28;20820;-48
2023/03/25 03:09:32;;;;;;;3.67;2.43;;;10.80;99.90;;;;;;5072708;28;20441;-46
2023/03/25 03:12:15;;;;;;;5.80;2.00;;;10.50;99.90;;;;;;5076206;28;20396;-47
2023/03/25 03:15:00;;;;;;;2.50;1.93;;;10.30;99.90;;;;;;5075595;28;20461;-47
2023/03/25 03:17:37;;;;;;;3.73;2.40;;;10.40;99.90;;;;;;5075436;28;20809;-47
2023/03/25 03:20:13;;;;;;;4.87;2.57;;;10.20;99.90;;;;;;5075201;28;20909;-47
2023/03/25 03:22:45;;;;;;;3.70;2.23;;;10.60;99.90;;;;;;5057386;28;20793;-48
2023/03/25 03:25:26;;;;;;;3.43;2.00;;;10.50;99.90;;;;;;5075333;28;20456;-46
2023/03/25 03:27:57;;;;;;;6.83;3.43;;;10.60;99.90;;;;;;5075316;28;20434;-47
2023/03/25 03:30:28;;;;;;;4.80;2.60;;;10.50;99.90;;;;;;5074818;28;20803;-51
2023/03/25 03:33:08;;;;;;;4.77;2.20;;;10.60;99.90;;;;;;5074991;28;20828;-47
2023/03/25 03:35:39;;;;;;;4.10;2.23;;;11.20;99.90;;;;;;5075299;28;20479;-48
2023/03/25 03:38:10;;;;;;;4.13;2.57;;;10.50;99.90;;;;;;5074930;28;20423;-48
2023/03/25 03:40:39;;;;;;;8.53;2.27;;;10.60;99.90;;;;;;5075091;28;20681;-48
2023/03/25 03:43:10;;;;;;;5.30;2.53;;;10.30;99.90;;;;;;5074956;28;20441;-48
2023/03/25 03:45:42;;;;;;;4.00;2.40;;;11.00;99.90;;;;;;5075035;28;20441;-48
2023/03/25 03:48:13;;;;;;;5.30;2.67;;;10.40;99.90;;;;;;5074499;28;20436;-47
2023/03/25 03:50:47;;;;;;;3.90;1.83;;;10.70;99.90;;;;;;5074901;28;20430;-48
2023/03/25 03:53:17;;;;;;;3.20;1.77;;;10.60;99.90;;;;;;5075005;28;20479;-47
2023/03/25 03:55:50;;;;;;;7.20;2.70;;;10.30;99.90;;;;;;5074859;28;20800;-49
2023/03/25 03:58:22;;;;;;;6.90;2.03;;;11.00;99.90;;;;;;5074637;28;20466;-48
2023/03/25 04:00:58;;;;;;;4.83;2.30;;;10.00;99.90;;;;;;5074545;28;20434;-48
2023/03/25 04:03:33;;;;;;;3.97;2.63;;;10.70;99.90;;;;;;5074496;28;20545;-47
2023/03/25 04:06:08;;;;;;;4.03;1.90;;;10.80;99.90;;;;;;5074559;28;20431;-48
2023/03/25 04:08:41;;;;;;;5.77;2.73;;;10.50;99.90;;;;;;5074667;28;20439;-48
2023/03/25 04:11:15;;;;;;;4.60;1.93;;;10.90;99.90;;;;;;5074575;28;20469;-48
2023/03/25 04:13:44;;;;;;;4.90;1.70;;;11.00;99.90;;;;;;5074436;28;20481;-47
2023/03/25 04:16:11;;;;;;;2.83;1.90;;;10.60;99.90;;;;;;5074576;28;20445;-48
2023/03/25 04:18:38;;;;;;;11.07;4.33;;;10.60;99.90;;;;;;5074229;28;20454;-47
2023/03/25 04:21:05;;;;;;;3.77;1.70;;;10.70;99.90;;;;;;5073992;28;20426;-51
2023/03/25 04:23:33;;;;;;;5.70;1.97;;;10.70;99.90;;;;;;5074213;28;20454;-48
2023/03/25 04:26:01;;;;;;;4.73;1.57;;;10.00;99.90;;;;;;5074519;28;20405;-47
2023/03/25 04:28:30;;;;;;;4.67;2.20;;;10.30;99.90;;;;;;5073599;28;20442;-48
2023/03/25 04:30:59;;;;;;;5.97;2.10;;;10.60;99.90;;;;;;5074074;28;20852;-50
2023/03/25 04:33:28;;;;;;;2.90;1.90;;;10.40;99.90;;;;;;5074062;28;20514;-48
2023/03/25 04:35:55;;;;;;;3.90;1.60;;;10.50;99.90;;;;;;5056105;28;20447;-49
2023/03/25 04:38:21;;;;;;;4.80;1.70;;;10.80;99.90;;;;;;5074063;28;20417;-48
2023/03/25 04:40:48;;;;;;;5.53;2.50;;;10.20;99.90;;;;;;5073923;28;20431;-48
2023/03/25 04:43:15;;;;;;;4.70;2.20;;;10.60;99.90;;;;;;5074047;28;20435;-47
2023/03/25 04:45:47;;;;;;;10.07;1.87;;;11.00;99.90;;;;;;5073961;28;20412;-49
2023/03/25 04:48:22;;;;;;;4.57;1.80;;;11.20;99.90;;;;;;5073680;28;20443;-49
2023/03/25 04:50:50;;;;;;;7.90;1.80;;;10.60;99.90;;;;;;5073912;28;20430;-47
2023/03/25 04:53:17;;;;;;;3.73;1.80;;;10.70;99.90;;;;;;5073609;28;20843;-47
2023/03/25 04:55:46;;;;;;;6.60;2.00;;;10.90;99.90;;;;;;5073981;28;20477;-48
2023/03/25 04:58:14;;;;;;;5.90;1.80;;;10.60;99.90;;;;;;5073421;28;20446;-48
2023/03/25 05:00:42;;;;;;;2.70;1.60;;;10.30;99.90;;;;;;5073636;28;20438;-48
2023/03/25 05:03:11;;;;;;;2.20;1.47;;;10.30;99.90;;;;;;5073597;28;20453;-47
2023/03/25 05:05:38;;;;;;;5.00;1.83;;;10.40;99.90;;;;;;5073910;28;20443;-50
2023/03/25 05:08:05;;;;;;;5.97;1.50;;;10.40;99.90;;;;;;5073241;28;20434;-51
2023/03/25 05:10:33;;;;;;;5.17;1.90;;;10.50;99.90;;;;;;5073321;28;20983;-52
2023/03/25 05:13:00;;;;;;;4.23;1.73;;;10.30;99.90;;;;;;5073373;28;20442;-51
2023/03/25 05:15:29;;;;;;;5.47;1.50;;;10.20;99.90;;;;;;5073141;28;20603;-51
2023/03/25 05:17:55;;;;;;;3.60;1.33;;;10.30;99.90;;;;;;5073075;28;20445;-51
2023/03/25 05:20:23;;;;;;;4.10;1.63;;;10.40;99.90;;;;;;5072950;28;20438;-51
2023/03/25 05:22:52;;;;;;;3.47;1.77;;;10.40;99.90;;;;;;5055114;28;20465;-50
2023/03/25 05:25:21;;;;;;;3.97;2.00;;;10.10;99.90;;;;;;5073340;28;20827;-51
2023/03/25 05:27:48;;;;;;;6.30;2.00;;;10.20;99.90;;;;;;5072986;28;20459;-52
2023/03/25 05:30:15;;;;;;;3.50;1.63;;;9.80;99.90;;;;;;5054666;28;20438;-51
2023/03/25 05:32:44;;;;;;;5.30;2.80;;;10.30;99.90;;;;;;5072015;28;20955;-53
2023/03/25 05:35:11;;;;;;;4.13;1.77;;;10.10;99.90;;;;;;5072816;28;20486;-52
2023/03/25 05:37:39;;;;;;;3.47;1.67;;;10.20;99.90;;;;;;5072843;28;20417;-53
2023/03/25 05:40:08;;;;;;;3.87;1.60;;;10.00;99.90;;;;;;5072528;28;20416;-53
2023/03/25 05:42:36;;;;;;;4.40;1.90;;;10.20;99.90;;;;;;5072792;28;20434;-53
2023/03/25 05:45:03;;;;;;;3.37;1.73;;;10.60;99.90;;;;;;5072797;28;20836;-53
2023/03/25 05:47:30;;;;;;;3.03;1.83;;;10.20;99.90;;;;;;5072927;28;20511;-53
2023/03/25 05:49:57;;;;;;;3.17;1.50;;;10.50;99.90;;;;;;5072366;28;20424;-52
2023/03/25 05:52:24;;;;;;;3.70;1.57;;;10.60;99.90;;;;;;5072666;28;20458;-52
2023/03/25 05:54:52;;;;;;;6.40;1.57;;;10.80;99.90;;;;;;5072182;28;20570;-51
2023/03/25 05:57:19;;;;;;;4.90;1.50;;;10.30;99.90;;;;;;5072342;28;20443;-52
2023/03/25 05:59:46;;;;;;;2.10;1.50;;;10.80;99.90;;;;;;5071964;28;20444;-50
2023/03/25 06:02:14;;;;;;;3.23;1.63;;;11.00;99.90;;;;;;5072359;28;20434;-51
2023/03/25 06:04:41;;;;;;;5.27;1.73;;;11.30;99.90;;;;;;5072115;28;20441;-52
2023/03/25 06:07:13;;;;;;;3.50;1.40;;;11.50;99.90;;;;;;5072671;28;20430;-52
2023/03/25 06:09:44;;;;;;;2.50;1.40;;;11.30;99.90;;;;;;5072481;28;20437;-52
2023/03/25 06:12:13;;;;;;;2.90;1.57;;;11.10;99.90;;;;;;5072162;28;20420;-52
2023/03/25 06:14:41;;;;;;;3.10;1.40;;;10.50;99.90;;;;;;5071949;28;20487;-53
2023/03/25 06:17:09;;;;;;;3.87;1.40;;;11.50;99.90;;;;;;5072176;28;20440;-52
2023/03/25 06:19:41;;;;;;;2.57;1.20;;;11.30;99.90;;;;;;5071856;28;20928;-52
2023/03/25 06:22:09;;;;;;;4.33;1.60;;;11.40;99.90;;;;;;5072071;28;20515;-52
2023/03/25 06:24:36;;;;;;;2.33;1.10;;;10.80;99.90;;;;;;5071956;28;20457;-50
2023/03/25 06:27:03;;;;;;;2.83;1.17;;;11.30;99.90;;;;;;5072027;28;20438;-52
2023/03/25 06:29:31;;;;;;;2.03;1.13;;;11.30;99.90;;;;;;5071549;28;20443;-51
2023/03/25 06:31:58;;;;;;;3.50;1.30;;;11.30;99.90;;;;;;5054036;28;20955;-51
2023/03/25 06:34:25;;;;;;;2.00;1.13;;;11.20;99.90;;;;;;5071878;28;20457;-53
2023/03/25 06:36:52;;;;;;;2.13;1.10;;;11.00;99.90;;;;;;5071658;28;20439;-53
2023/03/25 06:39:19;;;;;;;2.53;1.27;;;11.20;99.90;;;;;;5071437;28;20489;-52
2023/03/25 06:41:46;;;;;;;4.70;1.83;;;11.30;99.90;;;;;;5053971;28;20501;-53
2023/03/25 06:44:19;;;;;;;4.33;1.00;;;11.30;99.90;;;;;;5053574;28;20467;-52
2023/03/25 06:46:47;;;;;;;5.70;1.40;;;11.40;99.90;;;;;;5071885;28;20950;-50
2023/03/25 06:49:14;;;;;;;2.40;1.13;;;11.80;99.90;;;;;;5071498;28;20792;-52
2023/03/25 06:51:41;;;;;;;7.87;2.03;;;11.50;99.90;;;;;;5071564;28;20413;-50
2023/03/25 06:54:07;;;;;;;4.60;1.30;;;11.00;99.90;;;;;;5071532;28;20486;-52
2023/03/25 06:56:34;;;;;;;4.43;1.80;;;11.70;99.90;;;;;;5071569;28;20432;-50
2023/03/25 06:59:01;;;;;;;2.50;1.40;;;11.40;99.90;;;;;;5053229;28;20895;-52
2023/03/25 07:01:28;;;;;;;2.77;1.10;;;11.80;99.90;;;;;;5053707;28;20482;-51
2023/03/25 07:03:56;;;;;;;2.13;1.37;;;11.60;99.90;;;;;;5071341;28;20479;-52
2023/03/25 07:06:24;;;;;;;3.20;1.80;;;11.50;99.90;;;;;;5071299;28;20800;-52
2023/03/25 07:08:51;;;;;;;6.27;1.40;;;12.00;99.90;;;;;;5071129;28;20473;-51
2023/03/25 07:11:23;;;;;;;1.83;1.07;;;11.90;99.90;;;;;;5071554;28;20407;-53
2023/03/25 07:13:52;;;;;;;3.47;1.50;;;11.70;99.90;;;;;;5070966;28;20482;-51
2023/03/25 07:16:19;;;;;;;2.13;1.20;;;11.50;99.90;;;;;;5071283;28;20430;-50
2023/03/25 07:18:46;;;;;;;3.83;1.20;;;11.60;99.90;;;;;;5071186;28;20447;-52
2023/03/25 07:21:14;;;;;;;2.93;1.40;;;11.90;99.90;;;;;;5071486;28;20434;-52
2023/03/25 07:23:40;;;;;;;3.23;1.60;;;11.50;99.90;;;;;;5071445;28;20470;-52
2023/03/25 07:26:07;;;;;;;2.47;1.20;;;11.50;99.90;;;;;;5071235;28;20939;-52
2023/03/25 07:28:36;;;;;;;6.20;1.77;;;11.50;99.90;;;;;;5071408;28;20795;-51
2023/03/25 07:31:06;;;;;;;4.73;1.50;;;11.60;99.90;;;;;;5071318;28;20529;-50
2023/03/25 07:33:32;;;;;;;3.17;1.10;;;11.80;99.90;;;;;;5052903;28;20479;-52
2023/03/25 07:35:59;;;;;;;1.60;0.93;;;11.60;99.90;;;;;;5071134;28;20828;-50
2023/03/25 07:38:27;;;;;;;5.00;1.60;;;12.00;99.90;;;;;;5070836;28;20472;-52
2023/03/25 07:40:54;;;;;;;2.90;1.07;;;11.60;99.90;;;;;;5071267;28;20776;-51
2023/03/25 07:43:20;;;;;;;5.23;1.40;;;11.90;99.90;;;;;;5071389;28;20440;-51
2023/03/25 07:46:05;;;;;;;1.83;0.97;;;11.70;99.90;;;;;;5053107;28;20443;-53
2023/03/25 07:48:32;;;;;;;3.47;1.27;;;12.00;99.90;;;;;;5052753;28;20463;-50
2023/03/25 07:50:58;;;;;;;3.43;1.93;;;12.40;99.90;;;;;;5070838;28;20929;-52
2023/03/25 07:53:26;;;;;;;4.87;1.60;;;12.30;99.90;;;;;;5071012;28;20965;-52
2023/03/25 07:55:53;;;;;;;2.77;1.10;;;12.20;99.90;;;;;;5072450;28;21054;-52
2023/03/25 07:58:20;;;;;;;4.10;1.40;;;12.60;99.90;;;;;;5073607;28;20808;-50
2023/03/25 08:00:46;;;;;;;6.53;1.60;;;12.30;99.90;;;;;;5074576;28;20447;-51
2023/03/25 08:03:14;;;;;;;4.03;1.37;;;12.50;99.90;;;;;;5074695;28;20442;-52
2023/03/25 08:05:45;;;;;;;3.63;1.50;;;12.70;99.90;;;;;;5074308;28;20429;-52
2023/03/25 08:08:11;;;;;;;7.30;1.40;;;12.60;99.90;;;;;;5074007;28;20473;-52
2023/03/25 08:10:42;;;;;;;2.63;1.00;;;13.20;99.90;;;;;;5074443;28;20404;-52
2023/03/25 08:13:09;;;;;;;3.63;1.47;;;12.80;99.90;;;;;;5074307;28;20441;-53
2023/03/25 08:15:36;;;;;;;2.57;1.40;;;13.20;99.90;;;;;;5074361;28;20483;-52
2023/03/25 08:18:04;;;;;;;5.60;1.70;;;13.40;99.90;;;;;;5074338;28;20453;-52
2023/03/25 08:20:30;;;;;;;4.10;1.13;;;13.60;99.90;;;;;;5074056;28;20441;-52
2023/03/25 08:22:58;;;;;;;6.27;1.40;;;13.50;99.90;;;;;;5074393;28;20408;-52
2023/03/25 08:25:24;;;;;;;2.40;1.27;;;13.60;99.90;;;;;;5074107;28;20471;-51
2023/03/25 08:27:52;;;;;;;5.07;1.20;;;13.80;99.90;;;;;;5074219;28;20896;-53
2023/03/25 08:30:19;;;;;;;5.07;1.70;;;13.70;99.90;;;;;;5073843;28;20417;-52
2023/03/25 08:32:45;;;;;;;3.43;1.13;;;13.60;99.90;;;;;;5073905;28;20453;-53
2023/03/25 08:35:12;;;;;;;3.43;0.93;;;13.50;99.90;;;;;;5073947;28;20478;-53
2023/03/25 08:37:39;;;;;;;4.67;1.37;;;13.50;99.90;;;;;;5074299;28;20428;-53
2023/03/25 08:40:08;;;;;;;4.80;1.87;;;13.30;99.90;;;;;;5073786;28;20517;-53
2023/03/25 08:42:35;;;;;;;3.73;1.50;;;13.70;99.90;;;;;;5074455;28;20440;-52
2023/03/25 08:45:04;;;;;;;2.93;1.20;;;13.90;99.90;;;;;;5055721;28;20458;-52
2023/03/25 08:47:31;;;;;;;3.33;1.27;;;14.00;99.90;;;;;;5073208;28;20436;-51
2023/03/25 08:49:58;;;;;;;3.77;1.87;;;13.90;99.90;;;;;;5073591;28;20440;-52
2023/03/25 08:52:25;;;;;;;4.83;1.80;;;14.10;99.90;;;;;;5073505;28;20434;-52
2023/03/25 08:54:51;;;;;;;3.20;1.53;;;14.20;99.90;;;;;;5073402;28;20486;-52
2023/03/25 08:57:18;;;;;;;3.50;1.23;;;14.70;99.90;;;;;;5073460;28;20415;-52
2023/03/25 08:59:44;;;;;;;4.67;1.30;;;14.40;99.90;;;;;;5073159;28;20430;-52
2023/03/25 09:02:13;;;;;;;8.10;1.33;;;14.70;99.90;;;;;;5073477;28;20430;-50
2023/03/25 09:04:40;;;;;;;2.63;1.00;;;14.50;99.90;;;;;;5073382;28;20476;-51
2023/03/25 09:07:09;;;;;;;2.40;1.53;;;14.50;99.70;;;;;;5072872;28;20445;-53
2023/03/25 09:09:36;;;;;;;3.00;1.00;;;14.40;99.40;;;;;;5072758;28;20444;-52
2023/03/25 09:12:03;;;;;;;2.47;1.03;;;14.60;99.20;;;;;;5073146;28;20430;-52
2023/03/25 09:14:29;;;;;;;3.17;1.20;;;14.50;99.00;;;;;;5073256;28;20712;-51
2023/03/25 09:16:56;;;;;;;3.40;1.30;;;14.60;98.80;;;;;;5073129;28;20491;-51
2023/03/25 09:19:25;;;;;;;4.20;1.40;;;14.70;99.00;;;;;;5054534;28;20460;-51
2023/03/25 09:21:51;;;;;;;4.07;2.13;;;15.00;98.80;;;;;;5072983;28;20511;-52
2023/03/25 09:24:18;;;;;;;3.97;1.50;;;14.80;98.60;;;;;;5073097;28;20457;-53
2023/03/25 09:26:45;;;;;;;2.53;1.40;;;15.00;98.10;;;;;;5072867;28;20878;-54
2023/03/25 09:29:12;;;;;;;3.30;1.33;;;14.90;97.70;;;;;;5072227;28;20434;-52
2023/03/25 09:31:38;;;;;;;2.40;1.20;;;15.20;97.70;;;;;;5073054;28;20404;-51
2023/03/25 09:34:06;;;;;;;4.90;1.20;;;15.00;97.50;;;;;;5072809;28;20562;-52
2023/03/25 09:36:34;;;;;;;4.00;1.30;;;15.00;97.60;;;;;;5072912;28;20658;-51
2023/03/25 09:39:01;;;;;;;2.97;1.07;;;14.90;97.40;;;;;;5071764;28;20411;-52
2023/03/25 09:41:45;;;;;;;2.43;1.30;;;14.80;97.30;;;;;;5072527;28;20426;-53
2023/03/25 09:44:18;;;;;;;3.13;1.30;;;14.50;97.20;;;;;;5072543;28;20454;-53
2023/03/25 09:46:45;;;;;;;3.73;1.70;;;14.70;98.00;;;;;;5072198;28;20430;-53
2023/03/25 09:49:16;;;;;;;5.17;1.40;;;14.50;98.40;;;;;;5071970;28;20434;-51
2023/03/25 09:51:46;;;;;;;3.43;1.23;;;14.10;98.50;;;;;;5072373;28;20426;-52
2023/03/25 09:54:22;;;;;;;4.20;1.57;;;14.00;98.60;;;;;;5072164;28;20450;-51
2023/03/25 09:56:50;;;;;;;2.33;1.30;;;14.40;98.40;;;;;;5072475;28;20760;-52
2023/03/25 09:59:19;;;;;;;3.43;1.20;;;14.10;98.10;;;;;;5072139;28;20458;-52
2023/03/25 10:01:57;;;;;;;3.43;1.40;;;14.20;98.10;;;;;;5072159;28;20426;-52
2023/03/25 10:04:48;;;;;;;2.73;1.60;;;14.10;97.90;;;;;;5071433;28;21000;-53
2023/03/25 10:07:31;;;;;;;4.50;1.60;;;14.30;97.80;;;;;;5068392;28;20951;-53
2023/03/25 10:10:06;;;;;;;2.40;1.53;;;14.50;97.60;;;;;;5071984;28;20434;-53
2023/03/25 10:12:40;;;;;;;2.40;1.07;;;14.40;96.70;;;;;;5071969;28;20418;-53
2023/03/25 10:15:21;;;;;;;5.20;1.63;;;14.40;96.70;;;;;;5071801;28;20481;-51
2023/03/25 10:18:02;;;;;;;4.30;1.07;;;14.30;96.50;;;;;;5071508;28;20430;-52
2023/03/25 10:20:41;;;;;;;2.60;1.03;;;14.90;96.50;;;;;;5071728;28;20988;-52
2023/03/25 10:23:17;;;;;;;4.67;1.57;;;14.70;96.20;;;;;;5071802;28;20426;-52
2023/03/25 10:25:47;;;;;;;3.83;1.27;;;14.50;96.00;;;;;;5071866;28;20432;-52
2023/03/25 10:28:19;;;;;;;8.33;1.63;;;14.40;95.70;;;;;;5071215;28;20509;-53
2023/03/25 10:30:51;;;;;;;2.77;1.40;;;14.50;95.60;;;;;;5072219;28;20427;-52
2023/03/25 10:33:26;;;;;;;2.90;1.30;;;14.00;95.50;;;;;;5071817;28;20404;-52
2023/03/25 10:35:56;;;;;;;2.40;1.30;;;14.10;95.50;;;;;;5071277;28;20469;-52
2023/03/25 10:38:24;;;;;;;2.60;1.20;;;14.60;95.70;;;;;;5071289;28;20426;-52
2023/03/25 10:41:03;;;;;;;2.43;1.20;;;14.70;95.60;;;;;;5071544;28;20430;-53
2023/03/25 10:43:32;;;;;;;8.40;1.63;;;14.70;95.40;;;;;;5071448;28;20453;-52
2023/03/25 10:46:03;;;;;;;3.70;1.40;;;14.70;95.40;;;;;;5071410;28;20433;-52
2023/03/25 10:48:31;;;;;;;2.63;1.30;;;14.90;95.00;;;;;;5071114;28;20466;-50
2023/03/25 10:51:03;;;;;;;5.20;1.87;;;15.00;95.00;;;;;;5071487;28;20958;-50
2023/03/25 10:53:31;;;;;;;6.17;1.40;;;15.20;94.90;;;;;;5071425;28;20492;-52
2023/03/25 10:56:02;;;;;;;2.83;1.00;;;15.10;94.60;;;;;;5071206;28;20487;-52
2023/03/25 10:58:30;;;;;;;6.93;1.53;;;15.60;94.10;;;;;;5070700;28;20520;-52
2023/03/25 11:00:56;;;;;;;3.23;1.63;;;15.50;94.00;;;;;;5071830;28;20440;-52
2023/03/25 11:03:30;;;;;;;3.07;1.23;;;15.20;93.60;;;;;;5070986;28;20821;-52
2023/03/25 11:05:57;;;;;;;2.03;1.20;;;15.00;93.40;;;;;;5071960;28;20518;-50
2023/03/25 11:08:24;;;;;;;4.43;1.80;;;15.20;93.50;;;;;;5070751;28;20739;-50
2023/03/25 11:10:56;;;;;;;3.77;1.70;;;15.50;93.80;;;;;;5070912;28;20655;-50
2023/03/25 11:13:25;;;;;;;3.63;1.50;;;15.50;93.70;;;;;;5071253;28;20527;-50
2023/03/25 11:15:54;;;;;;;4.20;2.37;;;15.50;93.40;;;;;;5053175;28;20479;-51
2023/03/25 11:18:26;;;;;;;4.17;1.37;;;15.90;93.60;;;;;;5071082;28;20520;-52
2023/03/25 11:20:56;;;;;;;3.37;1.77;;;15.60;93.20;;;;;;5071100;28;20955;-51
2023/03/25 11:23:27;;;;;;;3.70;1.50;;;15.60;93.20;;;;;;5070824;28;20457;-51
2023/03/25 11:26:01;;;;;;;3.60;1.40;;;15.70;93.10;;;;;;5071134;28;20421;-51
2023/03/25 11:28:38;;;;;;;5.07;1.90;;;15.50;92.90;;;;;;5052129;28;20449;-50
2023/03/25 11:31:14;;;;;;;1.70;1.17;;;15.80;93.20;;;;;;5072687;28;20911;-51
2023/03/25 11:33:41;;;;;;;7.77;4.07;;;15.70;93.00;;;;;;5074706;28;20961;-51
2023/03/25 11:36:22;;;;;;;5.40;2.80;;;15.80;93.00;;;;;;5074538;28;20475;-52
2023/03/25 11:38:53;;;;;;;2.50;1.07;;;15.70;92.50;;;;;;5074487;28;20470;-51
2023/03/25 11:41:21;;;;;;;1.50;0.90;;;15.30;92.80;;;;;;5056959;28;20508;-50
2023/03/25 11:43:49;;;;;;;3.33;1.27;;;14.90;94.00;;;;;;5074144;28;20456;-51
2023/03/25 11:46:18;;;;;;;2.70;1.20;;;14.80;94.90;;;;;;5074514;28;20432;-50
2023/03/25 11:48:45;;;;;;;2.00;1.33;;;14.80;95.10;;;;;;5074375;28;20430;-50
2023/03/25 11:51:14;;;;;;;2.37;1.33;;;14.70;95.50;;;;;;5074112;28;20473;-49
2023/03/25 11:53:46;;;;;;;1.80;1.23;;;14.70;95.70;;;;;;5074318;28;20455;-50
2023/03/25 11:56:19;;;;;;;3.20;1.40;;;14.40;95.90;;;;;;5074566;28;20481;-50
2023/03/25 11:58:48;;;;;;;4.27;1.47;;;14.60;96.40;;;;;;5074059;28;20471;-51
2023/03/25 12:01:24;;;;;;;3.20;1.47;;;14.60;96.90;;;;;;5074665;28;20536;-50
2023/03/25 12:03:52;;;;;;;2.37;1.30;;;14.40;97.10;;;;;;5074003;28;20527;-51
2023/03/25 12:06:21;;;;;;;2.50;1.67;;;14.50;97.50;;;;;;5074253;28;20429;-52
2023/03/25 12:08:52;;;;;;;4.40;1.67;;;14.70;97.90;;;;;;5073755;28;20434;-50
2023/03/25 12:11:23;;;;;;;7.20;1.73;;;15.20;98.10;;;;;;5074133;28;20440;-50
2023/03/25 12:14:15;;;;;;;10.50;7.40;;;15.30;98.00;;;;;;5073974;28;20446;-50
2023/03/25 12:16:48;;;;;;;5.80;2.27;;;15.30;97.60;;;;;;5073746;28;20470;-52
2023/03/25 12:19:24;;;;;;;2.50;1.57;;;15.60;96.80;;;;;;5073140;28;20434;-52
2023/03/25 12:22:13;;;;;;;8.00;1.40;;;15.40;95.60;;;;;;5073887;28;20437;-52
2023/03/25 12:25:01;;;;;;;4.50;1.20;;;15.60;95.20;;;;;;5074210;28;20425;-50
2023/03/25 12:27:40;;;;;;;3.17;1.27;;;15.50;94.30;;;;;;5073780;28;21005;-50
2023/03/25 12:30:19;;;;;;;3.57;1.27;;;15.60;94.40;;;;;;5073392;28;20516;-51
2023/03/25 12:32:52;;;;;;;2.20;1.20;;;15.30;94.00;;;;;;5073897;28;20947;-52
2023/03/25 12:35:28;;;;;;;2.57;1.50;;;16.10;94.30;;;;;;5073860;28;20531;-51
2023/03/25 12:38:18;;;;;;;3.67;1.60;;;15.50;93.60;;;;;;5073584;28;20437;-52
2023/03/25 12:41:05;;;;;;;2.43;1.13;;;15.50;93.50;;;;;;5073244;28;20442;-50
2023/03/25 12:43:39;;;;;;;2.00;1.13;;;15.60;93.30;;;;;;5073461;28;20454;-51
2023/03/25 12:46:22;;;;;;;1.87;1.20;;;16.20;93.30;;;;;;5073435;28;20637;-52
2023/03/25 12:49:03;;;;;;;3.23;1.47;;;16.00;92.50;;;;;;5073143;28;20960;-51
2023/03/25 12:51:42;;;;;;;3.30;1.13;;;16.00;91.80;;;;;;5073516;28;20447;-51
2023/03/25 12:54:24;;;;;;;2.03;0.80;;;15.90;91.60;;;;;;5073367;28;20974;-51
2023/03/25 12:57:00;;;;;;;2.70;1.30;;;16.10;91.60;;;;;;5055369;28;20489;-51
2023/03/25 12:59:50;;;;;;;2.20;1.03;;;15.90;91.30;;;;;;5072661;28;20440;-51
2023/03/25 13:02:35;;;;;;;2.50;1.00;;;15.90;91.20;;;;;;5072899;28;20438;-51
2023/03/25 13:05:18;;;;;;;2.40;1.40;;;16.10;91.20;;;;;;5054613;28;20482;-50
2023/03/25 13:07:48;;;;;;;2.10;1.03;;;16.10;90.80;;;;;;5072991;28;20742;-50